.
WxDataArchive / Data Records for 2009-06-14
2009-06-13 June 2009 2009-06-15

Data Records for Sunday, 14 June 2009

Time	Temp	Chill	HIndex	Humid	Dewpt	 Wind 	HiWind	WindDir	Rain 	Barom 
-----	----	-----	------	-----	-----	------	------	-------	-----	----- 
00:00	59.3	59.3	59.3	82	53.8	0	1	90	0.00	29.994 
00:05	59.3	59.3	59.3	82	53.8	0	1	90	0.00	29.994 
00:10	59.5	59.5	59.5	82	54.0	0	1	90	0.00	29.994 
00:15	59.6	59.6	59.6	82	54.1	0	1	90	0.00	29.996 
00:20	59.8	59.8	59.8	82	54.3	0	1	90	0.00	29.996 
00:25	59.9	59.9	59.9	81	54.1	0	1	90	0.00	29.996 
00:30	59.9	59.9	59.9	81	54.1	0	1	90	0.00	29.999 
00:35	60.1	60.1	60.1	81	54.2	0	1	90	0.00	29.999 
00:40	60.1	60.1	60.1	81	54.2	0	1	90	0.00	29.999 
00:45	60.1	60.1	60.1	81	54.2	0	0	---	0.00	30.000 
00:50	60.2	60.2	60.2	81	54.3	0	0	---	0.00	30.000 
00:55	60.2	60.2	60.2	81	54.3	0	1	90	0.00	30.000 
01:00	60.2	60.2	60.2	81	54.3	0	1	90	0.00	29.999 
01:05	60.2	60.2	60.2	81	54.3	0	0	---	0.00	29.999 
01:10	60.2	60.2	60.2	81	54.3	0	0	---	0.00	29.999 
01:15	60.2	60.2	60.2	81	54.3	0	0	---	0.00	30.001 
01:20	60.4	60.4	60.4	81	54.5	0	1	90	0.00	30.001 
01:25	60.4	60.4	60.4	81	54.5	0	1	90	0.00	30.001 
01:30	60.4	60.4	60.4	81	54.5	0	2	90	0.00	29.995 
01:35	60.4	60.4	60.4	81	54.5	0	1	90	0.00	29.995 
01:40	60.4	60.4	60.4	81	54.5	0	1	90	0.00	29.995 
01:45	60.2	60.2	60.2	81	54.3	0	1	90	0.00	30.000 
01:50	60.2	60.2	60.2	81	54.3	0	0	---	0.00	30.000 
01:55	60.1	60.1	60.1	81	54.2	0	1	90	0.00	30.000 
02:00	60.1	60.1	60.1	81	54.2	0	0	---	0.00	29.995 
02:05	60.1	60.1	60.1	82	54.6	0	0	---	0.00	29.995 
02:10	60.1	60.1	60.1	81	54.2	0	2	90	0.00	29.995 
02:15	60.1	60.1	60.1	81	54.2	0	0	---	0.00	30.001 
02:20	60.1	60.1	60.1	81	54.2	0	0	---	0.00	30.001 
02:25	60.2	60.2	60.2	81	54.3	0	0	---	0.00	30.001 
02:30	60.1	60.1	60.1	81	54.2	0	0	---	0.00	30.001 
02:35	60.1	60.1	60.1	82	54.6	0	0	---	0.00	30.001 
02:40	60.1	60.1	60.1	82	54.6	0	2	90	0.00	30.001 
02:45	60.1	60.1	60.1	82	54.6	0	1	90	0.00	30.003 
02:50	59.9	59.9	59.9	83	54.7	0	1	90	0.00	30.003 
02:55	59.9	59.9	59.9	83	54.7	0	1	90	0.00	30.003 
03:00	59.9	59.9	59.9	83	54.7	0	0	---	0.00	30.003 
03:05	59.8	59.8	59.8	83	54.6	0	1	90	0.00	30.003 
03:10	59.6	59.6	59.6	83	54.4	0	0	---	0.00	30.003 
03:15	59.5	59.5	59.5	84	54.7	0	0	---	0.00	30.006 
03:20	59.3	59.3	59.3	84	54.5	0	0	---	0.00	30.006 
03:25	59.0	59.0	59.0	84	54.2	0	0	---	0.00	30.006 
03:30	58.9	58.9	58.9	84	54.1	0	0	---	0.00	30.007 
03:35	58.7	58.7	58.7	84	53.9	0	0	---	0.00	30.007 
03:40	58.7	58.7	58.7	85	54.2	0	0	---	0.00	30.007 
03:45	58.6	58.6	58.6	85	54.1	0	0	---	0.00	30.004 
03:50	58.6	58.6	58.6	85	54.1	0	0	---	0.00	30.004 
03:55	58.6	58.6	58.6	86	54.4	0	0	---	0.00	30.004 
04:00	58.6	58.6	58.6	86	54.4	0	0	---	0.00	30.005 
04:05	58.6	58.6	58.6	86	54.4	0	0	---	0.00	30.005 
04:10	58.6	58.6	58.6	86	54.4	0	0	---	0.00	30.005 
04:15	58.7	58.7	58.7	86	54.5	0	0	---	0.00	30.001 
04:20	58.7	58.7	58.7	86	54.5	0	1	90	0.00	30.001 
04:25	58.7	58.7	58.7	85	54.2	0	0	---	0.00	30.001 
04:30	58.9	58.9	58.9	85	54.4	0	0	---	0.00	30.002 
04:35	58.9	58.9	58.9	85	54.4	0	0	---	0.00	30.002 
04:40	58.9	58.9	58.9	85	54.4	0	0	---	0.00	30.002 
04:45	58.9	58.9	58.9	85	54.4	0	0	---	0.00	30.001 
04:50	58.9	58.9	58.9	84	54.1	0	0	---	0.00	30.001 
04:55	58.9	58.9	58.9	84	54.1	0	0	---	0.00	30.001 
05:00	59.0	59.0	59.0	84	54.2	0	0	---	0.00	30.009 
05:05	59.0	59.0	59.0	84	54.2	0	0	---	0.00	30.009 
05:10	59.0	59.0	59.0	84	54.2	0	0	---	0.00	30.009 
05:15	59.0	59.0	59.0	84	54.2	0	0	---	0.00	30.011 
05:20	59.0	59.0	59.0	84	54.2	0	0	---	0.00	30.011 
05:25	59.0	59.0	59.0	84	54.2	0	1	90	0.00	30.011 
05:30	59.2	59.2	59.2	83	54.0	0	1	90	0.00	30.003 
05:35	59.2	59.2	59.2	82	53.7	0	0	---	0.00	30.003 
05:40	59.2	59.2	59.2	82	53.7	0	0	---	0.00	30.003 
05:45	59.2	59.2	59.2	82	53.7	0	0	---	0.00	30.001 
05:50	59.2	59.2	59.2	82	53.7	0	0	---	0.00	30.001 
05:55	59.2	59.2	59.2	82	53.7	0	0	---	0.00	30.001 
06:00	59.0	59.0	59.0	82	53.5	0	0	---	0.00	30.013 
06:05	59.0	59.0	59.0	83	53.8	0	1	90	0.00	30.013 
06:10	59.0	59.0	59.0	84	54.2	0	1	90	0.00	30.013 
06:15	59.0	59.0	59.0	84	54.2	0	1	90	0.00	30.014 
06:20	58.9	58.9	58.9	84	54.1	0	1	90	0.00	30.014 
06:25	58.7	58.7	58.7	84	53.9	0	1	90	0.00	30.014 
06:30	58.7	58.7	58.7	84	53.9	0	0	---	0.00	30.027 
06:35	58.6	58.6	58.6	84	53.8	0	0	---	0.00	30.027 
06:40	58.6	58.6	58.6	85	54.1	0	1	90	0.00	30.027 
06:45	58.6	58.6	58.6	85	54.1	0	1	90	0.00	30.028 
06:50	58.4	58.4	58.4	85	53.9	0	1	90	0.00	30.028 
06:55	58.4	58.4	58.4	85	53.9	0	1	90	0.00	30.028 
07:00	58.4	58.4	58.4	85	53.9	0	2	90	0.00	30.034 
07:05	58.6	58.6	58.6	86	54.4	0	1	90	0.00	30.034 
07:10	58.6	58.6	58.6	86	54.4	0	0	---	0.00	30.034 
07:15	58.7	58.7	58.7	86	54.5	0	1	90	0.00	30.034 
07:20	58.9	58.9	58.9	86	54.7	0	1	90	0.00	30.034 
07:25	58.9	58.9	58.9	86	54.7	0	1	90	0.00	30.034 
07:30	59.0	59.0	59.0	86	54.8	0	0	---	0.00	30.032 
07:35	59.2	59.2	59.2	85	54.7	0	2	90	0.00	30.032 
07:40	59.3	59.3	59.3	84	54.5	1	2	90	0.00	30.032 
07:45	59.5	59.5	59.5	83	54.3	1	3	90	0.00	30.029 
07:50	59.5	59.5	59.5	84	54.7	1	3	90	0.00	30.029 
07:55	59.8	59.8	59.8	84	55.0	0	1	90	0.00	30.029 
08:00	60.1	60.1	60.1	83	54.9	0	2	90	0.00	30.031 
08:05	60.4	60.4	60.4	82	54.9	0	2	90	0.00	30.031 
08:10	60.9	60.9	60.9	81	55.0	0	2	90	0.00	30.031 
08:15	61.6	61.6	61.6	80	55.4	0	2	90	0.00	30.027 
08:20	62.3	62.3	62.3	77	55.0	1	3	90	0.00	30.027 
08:25	62.9	62.9	62.9	76	55.2	1	3	90	0.00	30.027 
08:30	63.5	63.5	63.5	74	55.1	1	2	90	0.00	30.031 
08:35	64.2	64.2	64.2	74	55.7	1	4	90	0.00	30.031 
08:40	64.5	64.5	64.5	72	55.3	2	4	90	0.00	30.031 
08:45	64.7	64.7	64.7	73	55.8	1	4	90	0.00	30.027 
08:50	65.2	65.2	65.2	72	55.9	1	3	90	0.00	30.027 
08:55	65.0	65.0	65.0	71	55.4	1	3	90	0.00	30.027 
09:00	64.7	64.7	64.7	71	55.1	1	2	90	0.00	30.042 
09:05	64.8	64.8	64.8	72	55.6	1	3	90	0.00	30.042 
09:10	65.5	65.5	65.5	70	55.4	1	3	112	0.00	30.042 
09:15	65.6	65.6	65.6	70	55.5	1	3	112	0.00	30.041 
09:20	65.8	65.8	65.8	71	56.1	1	3	112	0.00	30.041 
09:25	65.5	65.5	65.5	69	55.1	1	4	90	0.00	30.041 
09:30	65.5	65.5	65.5	69	55.1	1	2	90	0.00	30.034 
09:35	66.3	66.3	66.3	67	55.0	1	4	90	0.00	30.034 
09:40	66.9	66.9	66.9	67	55.6	1	3	90	0.00	30.034 
09:45	67.8	67.8	67.8	67	56.4	1	5	90	0.00	30.025 
09:50	68.1	68.1	68.1	65	55.9	2	5	112	0.00	30.025 
09:55	68.6	68.6	68.6	63	55.5	1	3	112	0.00	30.025 
10:00	69.1	69.1	69.1	64	56.4	2	5	90	0.00	30.022 
10:05	69.4	69.4	69.4	61	55.4	2	6	90	0.00	30.022 
10:10	69.9	69.9	69.9	61	55.8	1	4	68	0.00	30.022 
10:15	70.3	70.3	70.3	60	55.7	2	5	90	0.00	30.026 
10:20	70.6	70.6	70.6	59	55.6	2	5	90	0.00	30.026 
10:25	70.4	70.4	70.4	58	54.9	1	4	112	0.00	30.026 
10:30	71.1	71.1	71.1	59	56.0	1	3	112	0.00	30.025 
10:35	71.5	71.5	71.5	58	55.9	1	3	112	0.00	30.025 
10:40	71.1	71.1	71.1	59	56.0	1	5	112	0.00	30.025 
10:45	70.6	70.6	70.6	57	54.6	2	6	90	0.00	30.025 
10:50	70.6	70.6	70.6	58	55.1	1	4	90	0.00	30.025 
10:55	70.6	70.6	70.6	57	54.6	1	4	112	0.00	30.025 
11:00	70.9	70.9	70.9	58	55.4	1	3	90	0.00	30.019 
11:05	71.6	71.6	71.6	57	55.5	1	3	90	0.00	30.019 
11:10	72.3	72.3	72.3	55	55.2	2	3	112	0.00	30.019 
11:15	72.5	72.5	72.5	57	56.4	2	3	135	0.00	30.014 
11:20	72.7	72.7	72.7	56	56.1	2	5	90	0.00	30.014 
11:25	72.7	72.7	72.7	58	57.1	2	5	90	0.00	30.014 
11:30	72.8	72.8	72.8	58	57.1	2	6	68	0.00	30.007 
11:35	73.2	73.2	73.2	57	57.0	2	5	90	0.00	30.007 
11:40	73.3	73.3	73.3	57	57.1	2	4	90	0.00	30.007 
11:45	73.7	73.7	73.7	57	57.5	2	4	90	0.00	30.008 
11:50	74.2	74.2	74.2	55	57.0	1	3	90	0.00	30.008 
11:55	74.4	74.4	74.4	57	58.2	2	3	90	0.00	30.008 
12:00	74.6	74.6	74.6	58	58.8	1	3	90	0.00	30.008 
12:05	74.9	74.9	74.9	55	57.6	1	3	90	0.00	30.008 
12:10	75.3	75.3	77.7	53	57.0	1	4	112	0.00	30.008 
12:15	75.6	75.6	77.9	53	57.2	1	3	112	0.00	30.007 
12:20	76.0	76.0	78.1	54	58.1	0	3	112	0.00	30.007 
12:25	75.8	75.8	77.9	56	59.0	2	6	68	0.00	30.007 
12:30	75.8	75.8	77.9	56	59.0	1	4	68	0.00	30.002 
12:35	75.6	75.6	77.8	55	58.3	2	5	68	0.00	30.002 
12:40	75.6	75.6	77.8	56	58.8	1	4	68	0.00	30.002 
12:45	75.8	75.8	78.0	52	56.9	1	4	68	0.00	30.003 
12:50	76.0	76.0	78.1	56	59.2	1	4	90	0.00	30.003 
12:55	75.8	75.8	77.9	56	59.0	1	3	90	0.00	30.003 
13:00	75.6	75.6	77.8	56	58.8	1	4	112	0.00	30.006 
13:05	75.6	75.6	77.8	55	58.3	1	3	45	0.00	30.006 
13:10	75.8	75.8	77.9	56	59.0	1	5	68	0.00	30.006 
13:15	76.3	76.3	78.3	54	58.4	1	3	68	0.00	30.004 
13:20	76.7	76.7	78.5	52	57.7	0	3	90	0.00	30.004 
13:25	76.8	76.8	78.5	53	58.4	1	5	90	0.00	30.004 
13:30	77.0	77.0	78.7	52	58.0	0	2	90	0.00	30.006 
13:35	77.2	77.2	78.8	53	58.7	1	2	90	0.00	30.006 
13:40	77.4	77.4	78.9	53	58.9	1	4	90	0.00	30.006 
13:45	77.4	77.4	78.9	53	58.9	2	6	112	0.00	30.002 
13:50	77.4	77.4	79.0	55	59.9	1	3	112	0.00	30.002 
13:55	77.7	77.7	79.1	51	58.1	1	3	112	0.00	30.002 
14:00	78.1	78.1	79.5	54	60.1	1	3	112	0.00	29.990 
14:05	78.3	78.3	79.4	50	58.1	0	2	112	0.00	29.990 
14:10	78.6	78.6	79.8	52	59.5	1	4	112	0.00	29.990 
14:15	78.5	78.5	79.5	49	57.7	1	4	90	0.00	29.988 
14:20	78.6	78.6	79.7	51	58.9	1	4	158	0.00	29.988 
14:25	78.5	78.5	79.5	49	57.7	1	3	225	0.00	29.988 
14:30	78.6	78.6	79.5	48	57.2	1	3	270	0.00	29.986 
14:35	78.6	78.6	79.6	49	57.8	1	3	0	0.00	29.986 
14:40	78.8	78.8	79.8	50	58.6	0	2	0	0.00	29.986 
14:45	78.8	78.8	79.7	49	58.0	1	2	45	0.00	29.975 
14:50	79.2	79.2	80.4	54	61.1	0	2	45	0.00	29.975 
14:55	79.2	79.2	80.3	52	60.0	0	1	45	0.00	29.975 
15:00	79.6	79.6	80.7	53	60.9	0	3	45	0.00	29.966 
15:05	79.8	79.8	80.5	48	58.3	2	10	90	0.00	29.966 
15:10	79.6	79.6	80.5	51	59.9	1	3	90	0.00	29.966 
15:15	79.6	79.6	80.4	49	58.7	1	4	112	0.00	29.968 
15:20	79.4	79.4	80.3	50	59.1	1	2	112	0.00	29.968 
15:25	79.6	79.6	80.3	48	58.2	1	4	90	0.00	29.968 
15:30	79.9	79.9	80.4	46	57.2	2	5	68	0.00	29.959 
15:35	79.9	79.9	80.5	48	58.4	1	3	68	0.00	29.959 
15:40	79.9	79.9	80.7	50	59.6	1	4	68	0.00	29.959 
15:45	80.1	80.1	80.9	50	59.8	1	5	90	0.00	29.965 
15:50	79.8	79.8	80.5	49	58.9	2	6	90	0.00	29.965 
15:55	79.2	79.2	80.1	49	58.4	1	3	112	0.00	29.965 
16:00	78.8	78.8	79.9	51	59.1	1	4	135	0.00	29.963 
16:05	79.4	79.4	80.3	50	59.1	0	3	135	0.00	29.963 
16:10	79.8	79.8	80.5	48	58.3	1	3	135	0.00	29.963 
16:15	80.1	80.1	81.1	52	60.9	0	3	90	0.00	29.960 
16:20	80.3	80.3	81.0	49	59.4	1	4	90	0.00	29.960 
16:25	80.3	80.3	80.9	48	58.8	0	2	90	0.00	29.960 
16:30	79.9	79.9	80.5	48	58.4	1	3	90	0.00	29.962 
16:35	79.2	79.2	80.1	50	58.9	1	3	90	0.00	29.962 
16:40	78.6	78.6	79.7	50	58.4	0	2	90	0.00	29.962 
16:45	78.6	78.6	79.6	49	57.8	0	2	90	0.00	29.964 
16:50	78.8	78.8	79.8	50	58.6	0	1	90	0.00	29.964 
16:55	79.0	79.0	80.0	51	59.3	0	2	90	0.00	29.964 
17:00	79.2	79.2	80.4	53	60.6	1	5	90	0.00	29.959 
17:05	79.2	79.2	80.2	51	59.5	0	3	135	0.00	29.959 
17:10	79.0	79.0	80.1	52	59.8	0	4	135	0.00	29.959 
17:15	78.5	78.5	79.7	52	59.4	0	1	135	0.00	29.958 
17:20	78.1	78.1	79.5	54	60.1	0	2	135	0.00	29.958 
17:25	78.1	78.1	79.5	53	59.6	0	2	135	0.00	29.958 
17:30	78.1	78.1	79.3	49	57.4	0	2	135	0.00	29.958 
17:35	78.3	78.3	79.5	51	58.7	0	3	135	0.00	29.958 
17:40	78.5	78.5	79.6	50	58.3	1	3	135	0.00	29.958 
17:45	78.8	78.8	80.0	53	60.2	0	2	135	0.00	29.955 
17:50	79.2	79.2	80.2	51	59.5	0	1	135	0.00	29.955 
17:55	79.4	79.4	80.2	49	58.5	0	2	135	0.00	29.955 
18:00	79.2	79.2	80.1	49	58.4	1	5	135	0.00	29.954 
18:05	79.0	79.0	80.0	50	58.7	0	3	135	0.00	29.954 
18:10	78.8	78.8	79.9	51	59.1	0	3	135	0.00	29.954 
18:15	78.6	78.6	79.7	50	58.4	0	2	135	0.00	29.956 
18:20	78.1	78.1	79.3	50	57.9	1	3	135	0.00	29.956 
18:25	77.9	77.9	79.2	51	58.3	0	3	135	0.00	29.956 
18:30	77.6	77.6	79.0	51	58.0	0	2	135	0.00	29.954 
18:35	77.2	77.2	78.7	50	57.1	1	4	135	0.00	29.954 
18:40	77.0	77.0	78.6	50	56.9	0	1	135	0.00	29.954 
18:45	77.0	77.0	78.7	52	58.0	1	2	135	0.00	29.954 
18:50	77.0	77.0	78.6	51	57.5	0	2	135	0.00	29.954 
18:55	77.0	77.0	78.7	52	58.0	0	2	135	0.00	29.954 
19:00	76.8	76.8	78.5	51	57.3	0	1	135	0.00	29.949 
19:05	76.7	76.7	78.4	51	57.2	0	2	135	0.00	29.949 
19:10	76.7	76.7	78.5	53	58.3	0	2	135	0.00	29.949 
19:15	76.7	76.7	78.5	53	58.3	0	1	135	0.00	29.952 
19:20	76.5	76.5	78.4	54	58.6	0	0	---	0.00	29.952 
19:25	76.5	76.5	78.4	54	58.6	0	1	135	0.00	29.952 
19:30	76.5	76.5	78.4	54	58.6	0	1	135	0.00	29.957 
19:35	76.5	76.5	78.4	53	58.1	0	2	135	0.00	29.957 
19:40	76.3	76.3	78.2	53	57.9	0	1	135	0.00	29.957 
19:45	76.1	76.1	78.1	53	57.7	0	2	135	0.00	29.960 
19:50	76.0	76.0	78.1	55	58.6	0	2	135	0.00	29.960 
19:55	75.8	75.8	78.0	55	58.5	0	2	135	0.00	29.960 
20:00	75.6	75.6	77.8	55	58.3	0	1	135	0.00	29.970 
20:05	75.4	75.4	77.7	55	58.1	0	3	135	0.00	29.970 
20:10	75.3	75.3	77.7	55	58.0	0	1	135	0.00	29.970 
20:15	75.1	75.1	77.6	55	57.8	0	0	---	0.00	29.963 
20:20	74.7	74.7	74.7	54	56.9	0	0	---	0.00	29.963 
20:25	74.6	74.6	74.6	55	57.3	0	1	135	0.00	29.963 
20:30	74.4	74.4	74.4	55	57.2	0	0	---	0.00	29.967 
20:35	74.2	74.2	74.2	55	57.0	0	0	---	0.00	29.967 
20:40	74.0	74.0	74.0	56	57.3	0	0	---	0.00	29.967 
20:45	73.9	73.9	73.9	56	57.2	0	0	---	0.00	29.967 
20:50	73.7	73.7	73.7	57	57.5	0	0	---	0.00	29.967 
20:55	73.5	73.5	73.5	57	57.3	0	0	---	0.00	29.967 
21:00	73.2	73.2	73.2	57	57.0	0	0	---	0.00	29.962 
21:05	72.8	72.8	72.8	57	56.7	0	0	---	0.00	29.962 
21:10	72.5	72.5	72.5	58	56.9	0	0	---	0.00	29.962 
21:15	72.1	72.1	72.1	58	56.5	0	0	---	0.00	29.964 
21:20	71.8	71.8	71.8	59	56.7	0	0	---	0.00	29.964 
21:25	71.5	71.5	71.5	60	56.9	0	0	---	0.00	29.964 
21:30	71.1	71.1	71.1	60	56.5	0	0	---	0.00	29.966 
21:35	70.8	70.8	70.8	61	56.7	0	0	---	0.00	29.966 
21:40	70.4	70.4	70.4	62	56.7	0	0	---	0.00	29.966 
21:45	70.1	70.1	70.1	62	56.5	0	0	---	0.00	29.971 
21:50	69.8	69.8	69.8	62	56.2	0	0	---	0.00	29.971 
21:55	69.4	69.4	69.4	63	56.2	0	0	---	0.00	29.971 
22:00	69.3	69.3	69.3	63	56.2	0	0	---	0.00	29.978 
22:05	68.9	68.9	68.9	64	56.2	0	0	---	0.00	29.978 
22:10	68.8	68.8	68.8	65	56.5	0	0	---	0.00	29.978 
22:15	68.4	68.4	68.4	65	56.2	0	0	---	0.00	29.982 
22:20	68.1	68.1	68.1	65	55.9	0	0	---	0.00	29.982 
22:25	67.9	67.9	67.9	67	56.5	0	0	---	0.00	29.982 
22:30	67.6	67.6	67.6	68	56.7	0	0	---	0.00	29.990 
22:35	67.4	67.4	67.4	69	56.9	0	0	---	0.00	29.990 
22:40	67.1	67.1	67.1	70	57.0	0	0	---	0.00	29.990 
22:45	66.8	66.8	66.8	70	56.7	0	0	---	0.00	29.988 
22:50	66.4	66.4	66.4	71	56.7	0	0	---	0.00	29.988 
22:55	66.0	66.0	66.0	72	56.7	0	0	---	0.00	29.988 
23:00	65.6	65.6	65.6	73	56.7	0	0	---	0.00	29.993 
23:05	65.2	65.2	65.2	74	56.7	0	0	---	0.00	29.993 
23:10	64.8	64.8	64.8	75	56.7	0	0	---	0.00	29.993 
23:15	64.5	64.5	64.5	77	57.1	0	0	---	0.00	29.990 
23:20	64.3	64.3	64.3	77	56.9	0	0	---	0.00	29.990 
23:25	64.0	64.0	64.0	78	57.0	0	0	---	0.00	29.990 
23:30	63.7	63.7	63.7	80	57.4	0	0	---	0.00	29.989 
23:35	63.4	63.4	63.4	81	57.5	0	0	---	0.00	29.989 
23:40	63.1	63.1	63.1	81	57.2	0	0	---	0.00	29.989 
23:45	62.9	62.9	62.9	81	57.0	0	0	---	0.00	29.995 
23:50	62.7	62.7	62.7	82	57.1	0	0	---	0.00	29.995 
23:55	62.6	62.6	62.6	83	57.4	0	0	---	0.00	29.995 

CoCoRaHS
IN-AL-39
A2 Web Hosting
Creative Commons License
GoDaddy
search engine by freefind advanced

loaded 2018-11-18 11:50:12 • last modified 2010-11-18 10:43:29
Privacy PolicyDisclaimer
• wx.awcolley.com is powered by PmWiki v.2002016 •
• all content (unless otherwise noted) © 2018 A W Colley